This is the latest recevied weather packets stored in our database for station/object WMSA. If no packets are shown the sender has not sent any weather packets the latest 10 day(s).
| Time | Temp. | Humidity | Pressure | Rain* | Wind** | Luminosity | Snow |
|---|---|---|---|---|---|---|---|
| 1778127004 | 32.78° C | 59% | 1008 hPa | - | - | - | - |
| 1778123399 | 31.67° C | 62% | 1008 hPa | - | - | - | - |
| 1778119799 | 30.56° C | 66% | 1008 hPa | - | - | - | - |
| 1778116199 | 28.89° C | 79% | 1008 hPa | - | - | - | - |
| 1778112603 | 26.67° C | 88% | 1007 hPa | - | - | - | - |
| 1778108998 | 25.56° C | 94% | 1007 hPa | - | - | - | - |
| 1778105399 | 25.56° C | 94% | 1006 hPa | - | - | - | - |
| 1778101798 | 25.56° C | 94% | 1006 hPa | - | - | - | - |
| 1778098203 | 25.56° C | 94% | 1006 hPa | - | - | - | - |
| 1778094598 | 25.56° C | 94% | 1007 hPa | - | - | - | - |
| 1778090998 | 26.67° C | 88% | 1007 hPa | - | - | - | - |
| 1778087398 | 26.67° C | 88% | 1008 hPa | - | - | - | - |
| 1778083803 | 26.67° C | 88% | 1009 hPa | - | - | - | - |
| 1778080204 | 26.67° C | 88% | 1009 hPa | - | - | - | - |
| 1778076598 | 26.67° C | 88% | 1008 hPa | - | - | - | - |
| 1778072998 | 26.67° C | 88% | 1007 hPa | - | - | - | - |
| 1778069402 | 26.67° C | 88% | 1006 hPa | - | - | - | - |
| 1778065798 | 26.67° C | 88% | 1006 hPa | - | - | - | - |
| 1778062198 | 26.67° C | 88% | 1006 hPa | - | - | - | - |
| 1778060990 | 26.67° C | 88% | 1006 hPa | - | - | - | - |
| 1778058597 | 25.56° C | 94% | 1006 hPa | - | - | - | - |
| 1778056190 | 25.56° C | 94% | 1006 hPa | - | - | - | - |
| 1778054997 | 26.67° C | 94% | 1006 hPa | - | - | - | - |
| 1778053790 | 30° C | 79% | 1006 hPa | - | - | - | - |
| 1778051403 | 31.67° C | 70% | 1005 hPa | - | - | - | - |
* Rain since midnight (hover to see other rain measurements)
** Current wind speed in m/s (hover to see current wind gust speed)